createdAt,value
2023-04-02T00:01:44.064Z,101950.47
2023-04-02T00:04:22.550Z,101952.69
2023-04-02T00:06:54.585Z,101961.53
2023-04-02T00:09:29.889Z,101969.44
2023-04-02T00:11:57.398Z,101972.03
2023-04-02T00:14:33.491Z,101970.16
2023-04-02T00:17:05.509Z,101961.22
2023-04-02T00:19:41.210Z,101973.31
2023-04-02T00:22:13.023Z,101977.78
2023-04-02T00:24:42.455Z,101977.41
2023-04-02T00:27:15.936Z,101990.06
2023-04-02T00:29:50.289Z,101977.59
2023-04-02T00:32:33.059Z,101991.91
2023-04-02T00:35:00.569Z,101985.09
2023-04-02T00:37:30.330Z,102002.66
2023-04-02T00:40:07.254Z,101970.72
2023-04-02T00:42:35.554Z,101997.13
2023-04-02T00:45:02.800Z,101992.09
2023-04-02T00:47:36.802Z,101995.16
2023-04-02T00:50:12.234Z,102003.03
2023-04-02T00:52:39.867Z,102011.63
2023-04-02T00:55:25.446Z,102011.16
2023-04-02T00:58:00.021Z,101985.13
2023-04-02T01:00:37.571Z,102024.94
2023-04-02T01:03:19.572Z,102025.75
2023-04-02T01:05:56.230Z,102029.88
2023-04-02T01:08:37.978Z,102036.59
2023-04-02T01:11:22.282Z,102007.06
2023-04-02T01:14:29.604Z,102040.88
2023-04-02T01:17:03.679Z,102037.28
2023-04-02T01:19:58.606Z,102038.91
2023-04-02T01:22:35.926Z,102046.69
2023-04-02T01:25:06.585Z,102023.88
2023-04-02T01:27:41.943Z,102051.72
2023-04-02T01:30:12.016Z,102052.44
2023-04-02T01:32:39.695Z,102046.16
2023-04-02T01:35:08.468Z,102044.28
2023-04-02T01:37:59.327Z,102049.28
2023-04-02T01:40:42.441Z,102018.56
2023-04-02T01:43:15.943Z,102067.25
2023-04-02T01:45:42.632Z,102065.41
2023-04-02T01:48:19.972Z,102039.13
2023-04-02T01:50:51.417Z,102075.31
2023-04-02T01:53:24.372Z,102036.91
2023-04-02T01:55:55.880Z,102084.63
2023-04-02T01:58:26.025Z,102089.72
2023-04-02T02:00:58.186Z,102080.22
2023-04-02T02:03:24.864Z,102080.84
2023-04-02T02:05:52.298Z,102069.81
2023-04-02T02:08:43.278Z,102073.31
2023-04-02T02:11:16.402Z,102083.09
2023-04-02T02:13:54.641Z,102089.06
2023-04-02T02:16:21.675Z,102088.78
2023-04-02T02:18:53.982Z,102092.91
2023-04-02T02:21:45.970Z,102097.16
2023-04-02T02:24:35.782Z,102111.69
2023-04-02T02:27:23.795Z,102108.78
2023-04-02T02:29:53.338Z,102096.53
2023-04-02T02:32:27.887Z,102106.34
2023-04-02T02:35:34.253Z,102103.81
2023-04-02T02:38:19.695Z,102107.91
2023-04-02T02:40:50.558Z,102115.09
2023-04-02T02:43:21.155Z,102121.22
2023-04-02T02:45:51.041Z,102149.22
2023-04-02T02:48:21.367Z,102138.84
2023-04-02T02:50:48.275Z,102131.69
2023-04-02T02:53:24.916Z,102146.91
2023-04-02T02:55:56.699Z,102132.94
2023-04-02T02:58:31.551Z,102145.72
2023-04-02T03:00:59.103Z,102148.41
2023-04-02T03:03:32.757Z,102144.22
2023-04-02T03:06:09.725Z,102151.06
2023-04-02T03:09:15.754Z,102146.81
2023-04-02T03:12:16.529Z,102160.34
2023-04-02T03:14:49.177Z,102166.06
2023-04-02T03:17:42.935Z,102173.25
2023-04-02T03:20:22.732Z,102179.13
2023-04-02T03:23:06.710Z,102179.31
2023-04-02T03:25:59.290Z,102176.63
2023-04-02T03:28:33.241Z,102184.72
2023-04-02T03:31:08.920Z,102197.84
2023-04-02T03:33:46.188Z,102101.91
2023-04-02T03:36:19.662Z,102192.56
2023-04-02T03:39:18.603Z,102205.13
2023-04-02T03:41:52.313Z,102210.41
2023-04-02T03:44:32.229Z,102213.22
2023-04-02T03:47:03.998Z,102201.75
2023-04-02T03:49:46.450Z,102191.19
2023-04-02T03:52:25.696Z,102216.84
2023-04-02T03:54:57.092Z,102224.31
2023-04-02T03:57:37.720Z,102214.16
2023-04-02T04:00:14.502Z,102210.63
2023-04-02T04:02:57.776Z,102237.47
2023-04-02T04:05:35.199Z,102207.75
2023-04-02T04:08:23.981Z,102244.16
2023-04-02T04:10:56.144Z,102246.53
2023-04-02T04:13:34.874Z,102225.59
2023-04-02T04:16:09.783Z,102261.13
2023-04-02T04:18:53.229Z,102212.75
2023-04-02T04:21:37.557Z,102240.16
2023-04-02T04:24:07.506Z,102274.78
2023-04-02T04:26:53.556Z,102279.16
2023-04-02T04:29:40.866Z,102276.66
2023-04-02T04:32:27.857Z,102274.78
2023-04-02T04:35:01.226Z,102272.09
2023-04-02T04:37:33.785Z,102279.88
2023-04-02T04:40:27.117Z,102282.06
2023-04-02T04:43:00.813Z,102250.75
2023-04-02T04:45:36.925Z,102290.75
2023-04-02T04:48:10.741Z,102260.03
2023-04-02T04:50:51.280Z,102293.00
2023-04-02T04:53:24.245Z,102297.31
2023-04-02T04:55:59.704Z,102300.63
2023-04-02T04:58:39.357Z,102290.63
2023-04-02T05:01:10.760Z,102302.88
2023-04-02T05:04:16.417Z,102308.97
2023-04-02T05:06:44.988Z,102281.31
2023-04-02T05:09:50.636Z,102316.94
2023-04-02T05:12:31.649Z,102277.94
2023-04-02T05:15:36.810Z,102325.31
2023-04-02T05:18:26.175Z,102337.47
2023-04-02T05:21:02.009Z,102327.91
2023-04-02T05:23:37.537Z,102335.69
2023-04-02T05:26:06.635Z,102340.88
2023-04-02T05:28:33.383Z,102335.59
2023-04-02T05:31:03.318Z,102344.16
2023-04-02T05:33:35.445Z,102346.56
2023-04-02T05:36:05.340Z,102346.56
2023-04-02T05:38:44.137Z,102363.78
2023-04-02T05:41:36.689Z,102357.59
2023-04-02T05:44:21.226Z,102371.38
2023-04-02T05:47:02.471Z,102363.09
2023-04-02T05:49:49.775Z,102391.22
2023-04-02T05:52:23.560Z,102381.13
2023-04-02T05:55:02.844Z,102388.06
2023-04-02T05:57:43.161Z,102393.47
2023-04-02T06:00:40.178Z,102399.56
2023-04-02T06:03:24.128Z,102406.31
2023-04-02T06:05:58.024Z,102407.63
2023-04-02T06:08:32.085Z,102423.25
2023-04-02T06:11:11.386Z,102424.06
2023-04-02T06:13:38.217Z,102391.47
2023-04-02T06:16:06.333Z,102430.94
2023-04-02T06:18:36.227Z,102430.03
2023-04-02T06:21:06.097Z,102433.31
2023-04-02T06:24:13.590Z,102438.72
2023-04-02T06:26:43.708Z,102443.31
2023-04-02T06:29:40.134Z,102445.31
2023-04-02T06:32:09.982Z,102456.09
2023-04-02T06:34:42.016Z,102431.72
2023-04-02T06:37:30.702Z,102455.09
2023-04-02T06:40:01.062Z,102467.59
2023-04-02T06:42:42.385Z,102480.75
2023-04-02T06:45:23.628Z,102470.75
2023-04-02T06:50:31.349Z,102495.97
2023-04-02T06:53:06.459Z,102505.16
2023-04-02T06:55:50.452Z,102498.16
2023-04-02T06:58:19.907Z,102505.16
2023-04-02T07:00:49.373Z,102500.09
2023-04-02T07:03:27.315Z,102506.94
2023-04-02T07:05:54.712Z,102510.34
2023-04-02T07:08:23.863Z,102518.91
2023-04-02T07:10:50.835Z,102517.78
2023-04-02T07:13:23.515Z,102521.19
2023-04-02T07:15:55.279Z,102524.66
2023-04-02T07:18:32.523Z,102520.38
2023-04-02T07:20:59.497Z,102522.75
2023-04-02T07:23:27.279Z,102539.63
2023-04-02T07:25:56.221Z,102542.22
2023-04-02T07:28:23.240Z,102531.31
2023-04-02T07:30:50.939Z,102548.47
2023-04-02T07:33:20.628Z,102558.34
2023-04-02T07:35:48.291Z,102578.41
2023-04-02T07:38:17.281Z,102564.44
2023-04-02T07:40:44.158Z,102528.41
2023-04-02T07:43:11.296Z,102563.13
2023-04-02T07:45:38.209Z,102578.84
2023-04-02T07:48:10.979Z,102574.38
2023-04-02T07:50:38.091Z,102577.97
2023-04-02T07:53:08.876Z,102583.38
2023-04-02T07:55:38.319Z,102582.03
2023-04-02T07:58:04.946Z,102573.03
2023-04-02T08:00:33.674Z,102597.13
2023-04-02T08:03:00.543Z,102602.19
2023-04-02T08:05:30.232Z,102550.06
2023-04-02T08:07:59.146Z,102599.81
2023-04-02T08:10:28.075Z,102572.91
2023-04-02T08:12:54.697Z,102604.91
2023-04-02T08:15:21.351Z,102603.13
2023-04-02T08:17:48.345Z,102596.34
2023-04-02T08:20:20.965Z,102616.16
2023-04-02T08:22:48.932Z,102620.56
2023-04-02T08:25:18.530Z,102624.28
2023-04-02T08:27:47.154Z,102636.53
2023-04-02T08:30:17.785Z,102633.28
2023-04-02T08:32:44.788Z,102639.69
2023-04-02T08:35:14.776Z,102646.69
2023-04-02T08:37:44.103Z,102643.09
2023-04-02T08:40:55.003Z,102651.53
2023-04-02T08:43:48.856Z,102647.84
2023-04-02T08:46:37.682Z,102655.50
2023-04-02T08:49:14.501Z,102631.72
2023-04-02T08:51:41.588Z,102666.88
2023-04-02T08:54:31.529Z,102661.81
2023-04-02T08:57:07.148Z,102668.13
2023-04-02T08:59:38.352Z,102674.44
2023-04-02T09:02:27.997Z,102676.31
2023-04-02T09:04:57.319Z,102669.34
2023-04-02T09:07:24.582Z,102702.13
2023-04-02T09:09:51.658Z,102698.53
2023-04-02T09:12:21.056Z,102705.44
2023-04-02T09:15:18.606Z,102713.19
2023-04-02T09:17:53.664Z,102721.75
2023-04-02T09:20:29.899Z,102725.81
2023-04-02T09:22:57.338Z,102702.25
2023-04-02T09:25:33.371Z,102735.84
2023-04-02T09:28:05.900Z,102724.25
2023-04-02T09:30:32.533Z,102735.84
2023-04-02T09:33:07.777Z,102735.63
2023-04-02T09:35:36.797Z,102738.19
2023-04-02T09:38:22.367Z,102722.44
2023-04-02T09:40:48.939Z,102735.19
2023-04-02T09:43:18.917Z,102727.41
2023-04-02T09:46:01.067Z,102699.00
2023-04-02T09:48:53.213Z,102737.75
2023-04-02T09:51:24.254Z,102707.78
2023-04-02T09:54:03.219Z,102736.88
2023-04-02T09:56:31.672Z,102733.03
2023-04-02T09:59:13.307Z,102742.94
2023-04-02T10:01:57.091Z,102737.75
2023-04-02T10:04:45.972Z,102739.78
2023-04-02T10:07:38.798Z,102751.28
2023-04-02T10:10:25.086Z,102756.00
2023-04-02T10:13:04.391Z,102739.66
2023-04-02T10:15:41.464Z,102752.16
2023-04-02T10:18:41.470Z,102749.09
2023-04-02T10:21:12.840Z,102761.59
2023-04-02T10:23:42.470Z,102764.94
2023-04-02T10:26:12.194Z,102778.78
2023-04-02T10:29:09.469Z,102782.25
2023-04-02T10:32:01.376Z,102784.03
2023-04-02T10:34:43.059Z,102787.03
2023-04-02T10:37:44.412Z,102789.19
2023-04-02T10:40:14.568Z,102781.69
2023-04-02T10:43:29.720Z,102785.50
2023-04-02T10:46:23.045Z,102771.72
2023-04-02T10:49:15.591Z,102794.78
2023-04-02T10:51:50.638Z,102768.25
2023-04-02T10:54:32.541Z,102801.50
2023-04-02T10:57:25.508Z,102788.22
2023-04-02T11:00:11.346Z,102812.94
2023-04-02T11:02:56.766Z,102813.25
2023-04-02T11:05:37.350Z,102811.75
2023-04-02T11:08:24.427Z,102829.84
2023-04-02T11:11:00.050Z,102809.03
2023-04-02T11:13:58.355Z,102821.22
2023-04-02T11:16:27.464Z,102802.38
2023-04-02T11:19:16.085Z,102819.81
2023-04-02T11:21:58.061Z,102819.81
2023-04-02T11:24:36.967Z,102818.00
2023-04-02T11:27:09.982Z,102820.81
2023-04-02T11:29:43.002Z,102805.69
2023-04-02T11:32:27.318Z,102824.19
2023-04-02T11:35:06.402Z,102835.09
2023-04-02T11:37:47.289Z,102833.03
2023-04-02T11:40:14.073Z,102837.75
2023-04-02T11:42:45.110Z,102831.72
2023-04-02T11:45:23.054Z,102845.75
2023-04-02T11:48:02.307Z,102830.13
2023-04-02T11:50:43.740Z,102839.53
2023-04-02T11:53:10.631Z,102845.44
2023-04-02T11:56:08.589Z,102851.66
2023-04-02T11:58:47.387Z,102849.84
2023-04-02T12:01:45.329Z,102851.88
2023-04-02T12:04:34.958Z,102852.38
2023-04-02T12:07:26.810Z,102855.25
2023-04-02T12:09:59.509Z,102828.34
2023-04-02T12:12:32.046Z,102865.78
2023-04-02T12:14:59.946Z,102851.00
2023-04-02T12:17:30.772Z,102871.81
2023-04-02T12:20:02.741Z,102877.84
2023-04-02T12:22:32.953Z,102876.72
2023-04-02T12:25:24.000Z,102878.81
2023-04-02T12:28:18.579Z,102897.44
2023-04-02T12:30:49.365Z,102880.00
2023-04-02T12:33:22.034Z,102894.53
2023-04-02T12:35:54.904Z,102887.44
2023-04-02T12:38:36.776Z,102904.94
2023-04-02T12:41:06.736Z,102893.94
2023-04-02T12:43:36.888Z,102895.72
2023-04-02T12:46:06.644Z,102876.31
2023-04-02T12:48:35.563Z,102895.25
2023-04-02T12:51:08.207Z,102889.53
2023-04-02T12:53:41.356Z,102891.63
2023-04-02T12:56:19.697Z,102891.06
2023-04-02T12:58:56.701Z,102846.41
2023-04-02T13:01:29.439Z,102898.44
2023-04-02T13:04:09.955Z,102906.06
2023-04-02T13:06:39.367Z,102910.78
2023-04-02T13:09:31.545Z,102905.84
2023-04-02T13:12:01.242Z,102900.78
2023-04-02T13:14:28.521Z,102894.78
2023-04-02T13:16:57.868Z,102906.59
2023-04-02T13:19:33.714Z,102905.97
2023-04-02T13:22:03.075Z,102913.22
2023-04-02T13:24:33.576Z,102911.50
2023-04-02T13:27:02.803Z,102904.41
2023-04-02T13:29:34.772Z,102886.38
2023-04-02T13:32:04.457Z,102910.63
2023-04-02T13:34:31.667Z,102881.94
2023-04-02T13:37:00.212Z,102906.28
2023-04-02T13:39:27.242Z,102869.13
2023-04-02T13:42:03.497Z,102906.91
2023-04-02T13:44:32.044Z,102905.50
2023-04-02T13:46:59.128Z,102905.31
2023-04-02T13:49:26.446Z,102909.19
2023-04-02T13:51:58.032Z,102881.94
2023-04-02T13:54:35.014Z,102917.09
2023-04-02T13:57:03.366Z,102912.41
2023-04-02T13:59:30.391Z,102903.47
2023-04-02T14:02:03.736Z,102905.00
2023-04-02T14:04:39.311Z,102912.19
2023-04-02T14:07:30.697Z,102912.31
2023-04-02T14:10:07.729Z,102906.78
2023-04-02T14:12:46.277Z,102927.53
2023-04-02T14:15:37.662Z,102930.72
2023-04-02T14:18:19.864Z,102908.97
2023-04-02T14:20:55.620Z,102913.78
2023-04-02T14:23:25.339Z,102903.94
2023-04-02T14:26:21.421Z,102908.38
2023-04-02T14:29:09.602Z,102889.03
2023-04-02T14:31:39.205Z,102902.94
2023-04-02T14:34:16.048Z,102900.53
2023-04-02T14:37:19.933Z,102907.56
2023-04-02T14:40:07.200Z,102910.59
2023-04-02T14:42:55.572Z,102912.31
2023-04-02T14:45:40.898Z,102915.00
2023-04-02T14:48:27.102Z,102906.09
2023-04-02T14:51:02.469Z,102905.16
2023-04-02T14:53:50.590Z,102895.56
2023-04-02T14:56:21.961Z,102880.13
2023-04-02T14:59:03.579Z,102874.16
2023-04-02T15:01:41.446Z,102887.94
2023-04-02T15:04:43.466Z,102878.94
2023-04-02T15:07:19.241Z,102876.63
2023-04-02T15:09:55.568Z,102872.22
2023-04-02T15:12:27.370Z,102881.03
2023-04-02T15:15:02.328Z,102870.50
2023-04-02T15:17:29.366Z,102880.84
2023-04-02T15:20:07.348Z,102845.28
2023-04-02T15:22:52.390Z,102862.19
2023-04-02T15:25:38.045Z,102863.38
2023-04-02T15:28:23.779Z,102843.47
2023-04-02T15:30:57.466Z,102870.38
2023-04-02T15:33:35.896Z,102873.09
2023-04-02T15:36:23.209Z,102871.69
2023-04-02T15:38:58.911Z,102852.84
2023-04-02T15:41:32.315Z,102853.34
2023-04-02T15:44:15.586Z,102861.63
2023-04-02T15:47:01.015Z,102844.06
2023-04-02T15:49:48.842Z,102866.66
2023-04-02T15:52:39.431Z,102871.06
2023-04-02T15:55:28.050Z,102877.09
2023-04-02T15:58:22.025Z,102875.91
2023-04-02T16:01:08.598Z,102884.03
2023-04-02T16:04:03.473Z,102881.03
2023-04-02T16:06:56.871Z,102887.94
2023-04-02T16:09:32.134Z,102872.53
2023-04-02T16:12:12.105Z,102874.44
2023-04-02T16:14:45.492Z,102874.00
2023-04-02T16:17:24.983Z,102865.72
2023-04-02T16:20:00.538Z,102883.91
2023-04-02T16:22:33.315Z,102881.94
2023-04-02T16:25:06.778Z,102903.06
2023-04-02T16:27:43.348Z,102894.97
2023-04-02T16:30:33.528Z,102905.69
2023-04-02T16:33:13.484Z,102902.59
2023-04-02T16:35:57.521Z,102910.69
2023-04-02T16:39:01.070Z,102910.31
2023-04-02T16:42:09.053Z,102925.00
2023-04-02T16:45:13.407Z,102914.50
2023-04-02T16:47:58.404Z,102901.94
2023-04-02T16:51:01.800Z,102925.91
2023-04-02T16:54:01.737Z,102920.50
2023-04-02T16:56:48.241Z,102923.97
2023-04-02T16:59:24.137Z,102925.81
2023-04-02T17:02:26.089Z,102938.09
2023-04-02T17:05:05.847Z,102943.19
2023-04-02T17:07:50.924Z,102943.13
2023-04-02T17:10:20.561Z,102940.31
2023-04-02T17:12:52.605Z,102946.13
2023-04-02T17:15:34.727Z,102940.22
2023-04-02T17:18:02.336Z,102944.63
2023-04-02T17:20:31.746Z,102931.69
2023-04-02T17:22:58.836Z,102931.38
2023-04-02T17:25:34.168Z,102959.22
2023-04-02T17:28:03.334Z,102955.22
2023-04-02T17:30:38.636Z,102975.25
2023-04-02T17:33:26.930Z,102970.06
2023-04-02T17:35:59.715Z,102978.66
2023-04-02T17:38:49.037Z,102975.06
2023-04-02T17:41:21.551Z,102976.53
2023-04-02T17:44:04.202Z,102973.44
2023-04-02T17:46:47.959Z,102983.72
2023-04-02T17:49:26.208Z,102979.72
2023-04-02T17:52:11.004Z,102946.13
2023-04-02T17:54:40.584Z,102985.50
2023-04-02T17:57:50.815Z,102990.63
2023-04-02T18:00:29.715Z,102987.78
2023-04-02T18:03:15.187Z,102984.78
2023-04-02T18:05:51.158Z,102987.53
2023-04-02T18:09:04.280Z,102992.31
2023-04-02T18:11:45.778Z,102987.50
2023-04-02T18:14:37.245Z,102998.47
2023-04-02T18:17:38.819Z,102997.13
2023-04-02T18:20:11.567Z,102988.34
2023-04-02T18:22:43.156Z,103009.50
2023-04-02T18:25:22.145Z,103010.97
2023-04-02T18:27:56.895Z,103008.72
2023-04-02T18:31:08.199Z,103012.91
2023-04-02T18:33:58.902Z,103011.66
2023-04-02T18:36:51.120Z,103023.31
2023-04-02T18:39:23.941Z,103019.50
2023-04-02T18:42:10.100Z,103033.84
2023-04-02T18:45:09.218Z,103039.50
2023-04-02T18:47:53.346Z,103015.22
2023-04-02T18:50:33.644Z,103039.63
2023-04-02T18:53:12.706Z,103036.34
2023-04-02T18:55:48.588Z,103048.66
2023-04-02T18:58:29.852Z,103052.72
2023-04-02T19:00:58.451Z,103049.88
2023-04-02T19:03:31.605Z,103049.63
2023-04-02T19:06:08.954Z,103057.22
2023-04-02T19:08:48.287Z,103056.16
2023-04-02T19:11:22.300Z,103052.34
2023-04-02T19:13:51.424Z,103061.59
2023-04-02T19:16:36.580Z,103062.25
2023-04-02T19:19:20.935Z,103059.44
2023-04-02T19:22:10.527Z,103053.78
2023-04-02T19:24:58.606Z,103059.41
2023-04-02T19:27:37.096Z,103067.63
2023-04-02T19:30:26.417Z,103075.97
2023-04-02T19:33:11.751Z,103072.13
2023-04-02T19:35:55.873Z,103076.19
2023-04-02T19:38:43.996Z,103077.50
2023-04-02T19:41:19.694Z,103084.94
2023-04-02T19:43:49.140Z,103086.97
2023-04-02T19:46:15.912Z,103066.13
2023-04-02T19:48:50.793Z,103036.72
2023-04-02T19:51:19.691Z,103091.19
2023-04-02T19:53:46.489Z,103057.34
2023-04-02T19:56:13.155Z,103075.47
2023-04-02T19:58:39.761Z,103067.84
2023-04-02T20:01:06.658Z,103096.44
2023-04-02T20:03:33.654Z,103095.19
2023-04-02T20:06:00.550Z,103090.41
2023-04-02T20:08:27.848Z,103106.63
2023-04-02T20:10:58.759Z,103110.53
2023-04-02T20:13:28.095Z,103110.94
2023-04-02T20:15:59.129Z,103094.19
2023-04-02T20:18:26.483Z,103073.00
2023-04-02T20:20:53.306Z,103115.69
2023-04-02T20:23:20.681Z,103115.31
2023-04-02T20:25:53.038Z,103133.88
2023-04-02T20:28:24.586Z,103119.63
2023-04-02T20:30:51.774Z,103124.44
2023-04-02T20:33:21.420Z,103127.69
2023-04-02T20:36:00.908Z,103126.25
2023-04-02T20:38:27.584Z,103115.69
2023-04-02T20:41:00.254Z,103112.97
2023-04-02T20:43:28.477Z,103137.19
2023-04-02T20:45:57.307Z,103134.75
2023-04-02T20:48:25.821Z,103137.84
2023-04-02T20:50:52.430Z,103146.00
2023-04-02T20:53:19.792Z,103158.28
2023-04-02T20:55:49.562Z,103157.13
2023-04-02T20:58:19.986Z,103142.09
2023-04-02T21:00:49.093Z,103150.91
2023-04-02T21:03:18.945Z,103174.59
2023-04-02T21:05:49.097Z,103170.06
2023-04-02T21:08:21.319Z,103165.94
2023-04-02T21:10:47.975Z,103169.94
2023-04-02T21:13:16.837Z,103164.25
2023-04-02T21:15:46.040Z,103175.50
2023-04-02T21:18:15.241Z,103185.31
2023-04-02T21:20:41.976Z,103188.81
2023-04-02T21:23:08.613Z,103176.03
2023-04-02T21:25:35.595Z,103196.19
2023-04-02T21:28:02.348Z,103196.97
2023-04-02T21:30:33.153Z,103192.97
2023-04-02T21:33:04.815Z,103168.09
2023-04-02T21:35:31.470Z,103200.59
2023-04-02T21:37:58.113Z,103208.50
2023-04-02T21:40:24.809Z,103220.25
2023-04-02T21:42:55.369Z,103214.66
2023-04-02T21:45:21.966Z,103211.84
2023-04-02T21:47:48.706Z,103210.53
2023-04-02T21:50:15.486Z,103201.81
2023-04-02T21:52:42.108Z,103218.53
2023-04-02T21:55:09.128Z,103190.00
2023-04-02T21:57:35.847Z,103216.81
2023-04-02T22:00:02.666Z,103217.31
2023-04-02T22:02:31.528Z,103194.09
2023-04-02T22:05:00.387Z,103213.16
2023-04-02T22:07:31.917Z,103213.38
2023-04-02T22:10:01.155Z,103208.28
2023-04-02T22:12:27.906Z,103204.31
2023-04-02T22:14:57.553Z,103216.31
2023-04-02T22:17:24.279Z,103219.41
2023-04-02T22:19:53.471Z,103211.88
2023-04-02T22:22:22.691Z,103217.19
2023-04-02T22:24:49.302Z,103225.56
2023-04-02T22:27:16.223Z,103223.63
2023-04-02T22:29:45.177Z,103214.00
2023-04-02T22:32:11.878Z,103230.97
2023-04-02T22:34:45.525Z,103232.34
2023-04-02T22:37:12.220Z,103236.34
2023-04-02T22:39:38.858Z,103235.94
2023-04-02T22:42:05.544Z,103229.31
2023-04-02T22:44:34.229Z,103223.59
2023-04-02T22:47:03.310Z,103226.78
2023-04-02T22:49:30.008Z,103233.09
2023-04-02T22:51:58.862Z,103188.75
2023-04-02T22:54:25.551Z,103216.31
2023-04-02T22:56:54.504Z,103220.59
2023-04-02T22:59:21.785Z,103215.13
2023-04-02T23:01:50.795Z,103208.53
2023-04-02T23:04:17.498Z,103194.88
2023-04-02T23:06:44.104Z,103194.03
2023-04-02T23:09:11.142Z,103211.16
2023-04-02T23:11:37.834Z,103200.72
2023-04-02T23:14:06.957Z,103211.34
2023-04-02T23:16:33.634Z,103211.34
2023-04-02T23:19:00.402Z,103202.75
2023-04-02T23:21:29.730Z,103217.16
2023-04-02T23:23:56.358Z,103203.94
2023-04-02T23:26:32.052Z,103187.47
2023-04-02T23:28:59.777Z,103223.72
2023-04-02T23:31:27.192Z,103210.81
2023-04-02T23:33:53.950Z,103222.91
2023-04-02T23:36:26.834Z,103211.41
2023-04-02T23:39:01.434Z,103215.03
2023-04-02T23:41:31.516Z,103222.50
2023-04-02T23:43:58.754Z,103214.50
2023-04-02T23:46:28.183Z,103227.22
2023-04-02T23:48:55.681Z,103221.81
2023-04-02T23:51:22.668Z,103225.13
2023-04-02T23:53:50.954Z,103192.31
2023-04-02T23:56:19.512Z,103217.72
2023-04-02T23:58:46.127Z,103220.91
